sensor_id;sensor_type;location;lat;lon;timestamp;P1;durP1;ratioP1;P2;durP2;ratioP2
55539;SDS011;41384;51.418;7.286;2023-02-05T00:00:32;26.55;;;8.30;;
55539;SDS011;41384;51.418;7.286;2023-02-05T00:02:57;25.35;;;9.02;;
55539;SDS011;41384;51.418;7.286;2023-02-05T00:05:22;26.25;;;8.82;;
55539;SDS011;41384;51.418;7.286;2023-02-05T00:07:47;27.95;;;10.32;;
55539;SDS011;41384;51.418;7.286;2023-02-05T00:10:13;30.80;;;10.98;;
55539;SDS011;41384;51.418;7.286;2023-02-05T00:12:38;23.85;;;10.10;;
55539;SDS011;41384;51.418;7.286;2023-02-05T00:15:04;22.98;;;8.98;;
55539;SDS011;41384;51.418;7.286;2023-02-05T00:17:29;21.65;;;9.93;;
55539;SDS011;41384;51.418;7.286;2023-02-05T00:19:55;25.75;;;9.38;;
55539;SDS011;41384;51.418;7.286;2023-02-05T00:22:20;27.60;;;9.93;;
55539;SDS011;41384;51.418;7.286;2023-02-05T00:24:45;22.95;;;8.93;;
55539;SDS011;41384;51.418;7.286;2023-02-05T00:27:11;23.83;;;8.48;;
55539;SDS011;41384;51.418;7.286;2023-02-05T00:29:36;26.05;;;9.02;;
55539;SDS011;41384;51.418;7.286;2023-02-05T00:32:01;27.58;;;9.13;;
55539;SDS011;41384;51.418;7.286;2023-02-05T00:34:27;26.35;;;8.70;;
55539;SDS011;41384;51.418;7.286;2023-02-05T00:36:52;25.08;;;8.23;;
55539;SDS011;41384;51.418;7.286;2023-02-05T00:39:17;25.88;;;8.63;;
55539;SDS011;41384;51.418;7.286;2023-02-05T00:41:43;25.88;;;9.38;;
55539;SDS011;41384;51.418;7.286;2023-02-05T00:44:09;27.27;;;9.18;;
55539;SDS011;41384;51.418;7.286;2023-02-05T00:46:34;21.42;;;8.88;;
55539;SDS011;41384;51.418;7.286;2023-02-05T00:48:59;25.02;;;8.60;;
55539;SDS011;41384;51.418;7.286;2023-02-05T00:51:24;29.90;;;9.40;;
55539;SDS011;41384;51.418;7.286;2023-02-05T00:53:50;29.05;;;8.40;;
55539;SDS011;41384;51.418;7.286;2023-02-05T00:56:15;24.42;;;8.25;;
55539;SDS011;41384;51.418;7.286;2023-02-05T00:58:40;24.15;;;8.35;;
55539;SDS011;41384;51.418;7.286;2023-02-05T01:01:11;23.23;;;8.05;;
55539;SDS011;41384;51.418;7.286;2023-02-05T01:03:38;22.90;;;8.30;;
55539;SDS011;41384;51.418;7.286;2023-02-05T01:06:03;20.70;;;8.88;;
55539;SDS011;41384;51.418;7.286;2023-02-05T01:08:28;26.45;;;8.75;;
55539;SDS011;41384;51.418;7.286;2023-02-05T01:10:54;26.73;;;8.93;;
55539;SDS011;41384;51.418;7.286;2023-02-05T01:13:20;27.63;;;8.88;;
55539;SDS011;41384;51.418;7.286;2023-02-05T01:15:46;28.50;;;8.35;;
55539;SDS011;41384;51.418;7.286;2023-02-05T01:18:11;29.27;;;9.20;;
55539;SDS011;41384;51.418;7.286;2023-02-05T01:20:37;23.40;;;9.60;;
55539;SDS011;41384;51.418;7.286;2023-02-05T01:23:04;22.63;;;8.63;;
55539;SDS011;41384;51.418;7.286;2023-02-05T01:25:29;23.25;;;8.45;;
55539;SDS011;41384;51.418;7.286;2023-02-05T01:27:54;23.13;;;7.80;;
55539;SDS011;41384;51.418;7.286;2023-02-05T01:30:20;21.02;;;8.52;;
55539;SDS011;41384;51.418;7.286;2023-02-05T01:32:45;27.35;;;8.05;;
55539;SDS011;41384;51.418;7.286;2023-02-05T01:35:10;23.73;;;8.95;;
55539;SDS011;41384;51.418;7.286;2023-02-05T01:37:36;26.50;;;7.93;;
55539;SDS011;41384;51.418;7.286;2023-02-05T01:40:01;30.10;;;8.88;;
55539;SDS011;41384;51.418;7.286;2023-02-05T01:42:27;25.42;;;8.77;;
55539;SDS011;41384;51.418;7.286;2023-02-05T01:47:51;26.13;;;8.68;;
55539;SDS011;41384;51.418;7.286;2023-02-05T01:50:20;26.25;;;7.93;;
55539;SDS011;41384;51.418;7.286;2023-02-05T01:55:16;18.95;;;6.80;;
55539;SDS011;41384;51.418;7.286;2023-02-05T01:57:42;29.45;;;7.65;;
55539;SDS011;41384;51.418;7.286;2023-02-05T02:00:08;24.50;;;6.93;;
55539;SDS011;41384;51.418;7.286;2023-02-05T02:02:34;26.27;;;7.60;;
55539;SDS011;41384;51.418;7.286;2023-02-05T02:05:02;24.17;;;7.32;;
55539;SDS011;41384;51.418;7.286;2023-02-05T02:07:32;27.65;;;7.60;;
55539;SDS011;41384;51.418;7.286;2023-02-05T02:09:58;27.42;;;8.05;;
55539;SDS011;41384;51.418;7.286;2023-02-05T02:12:25;20.88;;;7.47;;
55539;SDS011;41384;51.418;7.286;2023-02-05T02:14:54;23.50;;;6.93;;
55539;SDS011;41384;51.418;7.286;2023-02-05T02:17:23;24.58;;;7.47;;
55539;SDS011;41384;51.418;7.286;2023-02-05T02:20:04;25.08;;;7.82;;
55539;SDS011;41384;51.418;7.286;2023-02-05T02:28:03;25.67;;;8.35;;
55539;SDS011;41384;51.418;7.286;2023-02-05T02:30:42;24.60;;;7.70;;
55539;SDS011;41384;51.418;7.286;2023-02-05T02:33:20;29.33;;;8.25;;
55539;SDS011;41384;51.418;7.286;2023-02-05T02:36:07;29.75;;;7.65;;
55539;SDS011;41384;51.418;7.286;2023-02-05T02:41:12;24.38;;;7.70;;
55539;SDS011;41384;51.418;7.286;2023-02-05T02:44:24;20.02;;;8.48;;
55539;SDS011;41384;51.418;7.286;2023-02-05T02:46:40;23.17;;;8.38;;
55539;SDS011;41384;51.418;7.286;2023-02-05T02:49:10;22.33;;;8.73;;
55539;SDS011;41384;51.418;7.286;2023-02-05T02:51:39;29.35;;;9.55;;
55539;SDS011;41384;51.418;7.286;2023-02-05T02:54:08;26.17;;;8.63;;
55539;SDS011;41384;51.418;7.286;2023-02-05T02:56:40;24.70;;;7.97;;
55539;SDS011;41384;51.418;7.286;2023-02-05T02:59:08;26.90;;;8.48;;
55539;SDS011;41384;51.418;7.286;2023-02-05T03:01:37;21.02;;;8.00;;
55539;SDS011;41384;51.418;7.286;2023-02-05T03:04:09;33.67;;;8.38;;
55539;SDS011;41384;51.418;7.286;2023-02-05T03:06:38;22.30;;;7.57;;
55539;SDS011;41384;51.418;7.286;2023-02-05T03:11:56;20.35;;;8.02;;
55539;SDS011;41384;51.418;7.286;2023-02-05T03:14:21;21.55;;;8.35;;
55539;SDS011;41384;51.418;7.286;2023-02-05T03:16:47;30.63;;;8.32;;
55539;SDS011;41384;51.418;7.286;2023-02-05T03:19:12;27.90;;;8.55;;
55539;SDS011;41384;51.418;7.286;2023-02-05T03:21:39;21.35;;;9.90;;
55539;SDS011;41384;51.418;7.286;2023-02-05T03:24:07;28.63;;;9.18;;
55539;SDS011;41384;51.418;7.286;2023-02-05T03:26:34;26.13;;;9.43;;
55539;SDS011;41384;51.418;7.286;2023-02-05T03:29:01;22.02;;;8.65;;
55539;SDS011;41384;51.418;7.286;2023-02-05T03:37:15;24.17;;;9.07;;
55539;SDS011;41384;51.418;7.286;2023-02-05T03:40:07;21.63;;;9.43;;
55539;SDS011;41384;51.418;7.286;2023-02-05T03:42:35;26.67;;;9.43;;
55539;SDS011;41384;51.418;7.286;2023-02-05T03:45:24;29.40;;;10.52;;
55539;SDS011;41384;51.418;7.286;2023-02-05T03:50:48;35.60;;;10.05;;
55539;SDS011;41384;51.418;7.286;2023-02-05T03:56:02;26.25;;;11.02;;
55539;SDS011;41384;51.418;7.286;2023-02-05T03:58:35;25.30;;;10.77;;
55539;SDS011;41384;51.418;7.286;2023-02-05T04:01:06;28.70;;;11.60;;
55539;SDS011;41384;51.418;7.286;2023-02-05T04:03:33;22.60;;;10.38;;
55539;SDS011;41384;51.418;7.286;2023-02-05T04:05:59;30.42;;;11.20;;
55539;SDS011;41384;51.418;7.286;2023-02-05T04:08:24;31.77;;;11.98;;
55539;SDS011;41384;51.418;7.286;2023-02-05T04:10:50;33.30;;;12.20;;
55539;SDS011;41384;51.418;7.286;2023-02-05T04:13:15;30.08;;;11.07;;
55539;SDS011;41384;51.418;7.286;2023-02-05T04:15:40;28.40;;;12.07;;
55539;SDS011;41384;51.418;7.286;2023-02-05T04:18:05;29.65;;;11.40;;
55539;SDS011;41384;51.418;7.286;2023-02-05T04:20:32;32.78;;;10.85;;
55539;SDS011;41384;51.418;7.286;2023-02-05T04:22:57;29.67;;;11.43;;
55539;SDS011;41384;51.418;7.286;2023-02-05T04:25:22;28.38;;;11.68;;
55539;SDS011;41384;51.418;7.286;2023-02-05T04:27:48;37.42;;;12.68;;
55539;SDS011;41384;51.418;7.286;2023-02-05T04:30:13;28.05;;;11.98;;
55539;SDS011;41384;51.418;7.286;2023-02-05T04:32:38;32.95;;;11.98;;
55539;SDS011;41384;51.418;7.286;2023-02-05T04:35:04;30.98;;;11.98;;
55539;SDS011;41384;51.418;7.286;2023-02-05T04:37:29;33.33;;;12.95;;
55539;SDS011;41384;51.418;7.286;2023-02-05T04:39:55;36.42;;;13.68;;
55539;SDS011;41384;51.418;7.286;2023-02-05T04:42:20;32.85;;;11.70;;
55539;SDS011;41384;51.418;7.286;2023-02-05T04:44:45;36.78;;;13.13;;
55539;SDS011;41384;51.418;7.286;2023-02-05T04:47:10;37.20;;;14.00;;
55539;SDS011;41384;51.418;7.286;2023-02-05T04:49:37;36.13;;;13.40;;
55539;SDS011;41384;51.418;7.286;2023-02-05T04:52:04;36.15;;;12.77;;
55539;SDS011;41384;51.418;7.286;2023-02-05T04:54:30;41.13;;;13.55;;
55539;SDS011;41384;51.418;7.286;2023-02-05T04:56:55;38.95;;;14.38;;
55539;SDS011;41384;51.418;7.286;2023-02-05T04:59:20;43.25;;;14.85;;
55539;SDS011;41384;51.418;7.286;2023-02-05T05:01:46;32.45;;;13.13;;
55539;SDS011;41384;51.418;7.286;2023-02-05T05:04:11;36.25;;;12.68;;
55539;SDS011;41384;51.418;7.286;2023-02-05T05:06:36;32.78;;;14.55;;
55539;SDS011;41384;51.418;7.286;2023-02-05T05:09:02;33.00;;;12.95;;
55539;SDS011;41384;51.418;7.286;2023-02-05T05:11:27;33.85;;;12.63;;
55539;SDS011;41384;51.418;7.286;2023-02-05T05:13:52;36.22;;;14.10;;
55539;SDS011;41384;51.418;7.286;2023-02-05T05:16:18;29.48;;;12.20;;
55539;SDS011;41384;51.418;7.286;2023-02-05T05:18:43;33.40;;;14.45;;
55539;SDS011;41384;51.418;7.286;2023-02-05T05:21:09;29.40;;;12.73;;
55539;SDS011;41384;51.418;7.286;2023-02-05T05:23:34;27.48;;;11.95;;
55539;SDS011;41384;51.418;7.286;2023-02-05T05:26:02;33.35;;;12.68;;
55539;SDS011;41384;51.418;7.286;2023-02-05T05:28:32;32.53;;;12.40;;
55539;SDS011;41384;51.418;7.286;2023-02-05T05:30:59;35.33;;;12.55;;
55539;SDS011;41384;51.418;7.286;2023-02-05T05:33:30;27.88;;;11.93;;
55539;SDS011;41384;51.418;7.286;2023-02-05T05:35:55;25.73;;;11.00;;
55539;SDS011;41384;51.418;7.286;2023-02-05T05:38:20;23.20;;;10.38;;
55539;SDS011;41384;51.418;7.286;2023-02-05T05:40:45;23.70;;;10.95;;
55539;SDS011;41384;51.418;7.286;2023-02-05T05:43:30;20.67;;;9.60;;
55539;SDS011;41384;51.418;7.286;2023-02-05T05:46:11;23.50;;;10.00;;
55539;SDS011;41384;51.418;7.286;2023-02-05T05:48:36;23.98;;;10.15;;
55539;SDS011;41384;51.418;7.286;2023-02-05T05:51:02;24.80;;;10.75;;
55539;SDS011;41384;51.418;7.286;2023-02-05T05:53:27;26.58;;;11.52;;
55539;SDS011;41384;51.418;7.286;2023-02-05T05:55:52;25.38;;;11.43;;
55539;SDS011;41384;51.418;7.286;2023-02-05T05:58:18;25.70;;;11.02;;
55539;SDS011;41384;51.418;7.286;2023-02-05T06:00:43;27.08;;;11.20;;
55539;SDS011;41384;51.418;7.286;2023-02-05T06:03:09;24.58;;;10.25;;
55539;SDS011;41384;51.418;7.286;2023-02-05T06:05:34;21.75;;;10.45;;
55539;SDS011;41384;51.418;7.286;2023-02-05T06:08:00;26.25;;;10.98;;
55539;SDS011;41384;51.418;7.286;2023-02-05T06:10:25;24.17;;;10.68;;
55539;SDS011;41384;51.418;7.286;2023-02-05T06:12:51;26.17;;;11.45;;
55539;SDS011;41384;51.418;7.286;2023-02-05T06:15:19;36.47;;;13.57;;
55539;SDS011;41384;51.418;7.286;2023-02-05T06:17:45;31.80;;;13.80;;
55539;SDS011;41384;51.418;7.286;2023-02-05T06:20:11;28.05;;;13.50;;
55539;SDS011;41384;51.418;7.286;2023-02-05T06:22:37;30.52;;;13.40;;
55539;SDS011;41384;51.418;7.286;2023-02-05T06:25:02;30.05;;;14.23;;
55539;SDS011;41384;51.418;7.286;2023-02-05T06:27:28;36.00;;;14.90;;
55539;SDS011;41384;51.418;7.286;2023-02-05T06:29:54;33.67;;;14.43;;
55539;SDS011;41384;51.418;7.286;2023-02-05T06:32:19;30.42;;;14.95;;
55539;SDS011;41384;51.418;7.286;2023-02-05T06:34:45;40.65;;;16.05;;
55539;SDS011;41384;51.418;7.286;2023-02-05T06:37:10;36.50;;;16.02;;
55539;SDS011;41384;51.418;7.286;2023-02-05T06:39:36;37.95;;;16.50;;
55539;SDS011;41384;51.418;7.286;2023-02-05T06:42:01;41.97;;;18.23;;
55539;SDS011;41384;51.418;7.286;2023-02-05T06:44:26;35.70;;;16.13;;
55539;SDS011;41384;51.418;7.286;2023-02-05T06:46:52;34.95;;;16.55;;
55539;SDS011;41384;51.418;7.286;2023-02-05T06:49:17;41.40;;;17.25;;
55539;SDS011;41384;51.418;7.286;2023-02-05T06:51:42;41.00;;;18.20;;
55539;SDS011;41384;51.418;7.286;2023-02-05T06:54:08;42.88;;;18.58;;
55539;SDS011;41384;51.418;7.286;2023-02-05T06:56:33;44.17;;;19.00;;
55539;SDS011;41384;51.418;7.286;2023-02-05T06:58:58;45.38;;;19.85;;
55539;SDS011;41384;51.418;7.286;2023-02-05T07:01:23;43.95;;;19.73;;
55539;SDS011;41384;51.418;7.286;2023-02-05T07:03:49;44.97;;;20.88;;
55539;SDS011;41384;51.418;7.286;2023-02-05T07:06:18;44.88;;;19.85;;
55539;SDS011;41384;51.418;7.286;2023-02-05T07:08:43;53.80;;;21.73;;
55539;SDS011;41384;51.418;7.286;2023-02-05T07:11:10;45.97;;;21.10;;
55539;SDS011;41384;51.418;7.286;2023-02-05T07:13:36;52.28;;;22.63;;
55539;SDS011;41384;51.418;7.286;2023-02-05T07:16:02;50.80;;;21.65;;
55539;SDS011;41384;51.418;7.286;2023-02-05T07:18:28;46.33;;;21.25;;
55539;SDS011;41384;51.418;7.286;2023-02-05T07:20:53;50.58;;;23.27;;
55539;SDS011;41384;51.418;7.286;2023-02-05T07:23:19;48.30;;;21.35;;
55539;SDS011;41384;51.418;7.286;2023-02-05T07:25:44;51.30;;;20.75;;
55539;SDS011;41384;51.418;7.286;2023-02-05T07:28:10;46.25;;;20.15;;
55539;SDS011;41384;51.418;7.286;2023-02-05T07:30:35;48.65;;;22.27;;
55539;SDS011;41384;51.418;7.286;2023-02-05T07:33:00;45.33;;;21.00;;
55539;SDS011;41384;51.418;7.286;2023-02-05T07:35:27;44.80;;;20.05;;
55539;SDS011;41384;51.418;7.286;2023-02-05T07:37:53;45.63;;;21.00;;
55539;SDS011;41384;51.418;7.286;2023-02-05T07:40:19;51.78;;;21.15;;
55539;SDS011;41384;51.418;7.286;2023-02-05T07:42:44;38.28;;;17.80;;
55539;SDS011;41384;51.418;7.286;2023-02-05T07:45:09;35.40;;;18.27;;
55539;SDS011;41384;51.418;7.286;2023-02-05T07:47:34;37.38;;;18.05;;
55539;SDS011;41384;51.418;7.286;2023-02-05T07:50:00;41.95;;;18.65;;
55539;SDS011;41384;51.418;7.286;2023-02-05T07:52:26;35.58;;;17.08;;
55539;SDS011;41384;51.418;7.286;2023-02-05T07:54:51;29.38;;;15.93;;
55539;SDS011;41384;51.418;7.286;2023-02-05T07:57:16;31.63;;;15.70;;
55539;SDS011;41384;51.418;7.286;2023-02-05T07:59:42;32.75;;;16.02;;
55539;SDS011;41384;51.418;7.286;2023-02-05T08:02:08;34.08;;;16.92;;
55539;SDS011;41384;51.418;7.286;2023-02-05T08:04:35;33.95;;;16.63;;
55539;SDS011;41384;51.418;7.286;2023-02-05T08:07:00;30.75;;;16.25;;
55539;SDS011;41384;51.418;7.286;2023-02-05T08:09:25;26.48;;;15.23;;
55539;SDS011;41384;51.418;7.286;2023-02-05T08:11:51;29.50;;;16.13;;
55539;SDS011;41384;51.418;7.286;2023-02-05T08:14:16;31.95;;;16.55;;
55539;SDS011;41384;51.418;7.286;2023-02-05T08:16:41;32.70;;;16.92;;
55539;SDS011;41384;51.418;7.286;2023-02-05T08:19:07;38.40;;;18.20;;
55539;SDS011;41384;51.418;7.286;2023-02-05T08:21:38;33.28;;;17.20;;
55539;SDS011;41384;51.418;7.286;2023-02-05T08:24:03;30.83;;;17.33;;
55539;SDS011;41384;51.418;7.286;2023-02-05T08:26:28;32.10;;;17.00;;
55539;SDS011;41384;51.418;7.286;2023-02-05T08:28:53;30.85;;;15.60;;
55539;SDS011;41384;51.418;7.286;2023-02-05T08:31:19;30.85;;;15.93;;
55539;SDS011;41384;51.418;7.286;2023-02-05T08:33:44;34.08;;;16.80;;
55539;SDS011;41384;51.418;7.286;2023-02-05T08:36:11;27.85;;;14.77;;
55539;SDS011;41384;51.418;7.286;2023-02-05T08:38:37;23.63;;;13.50;;
55539;SDS011;41384;51.418;7.286;2023-02-05T08:41:03;26.63;;;14.20;;
55539;SDS011;41384;51.418;7.286;2023-02-05T08:43:36;23.65;;;13.32;;
55539;SDS011;41384;51.418;7.286;2023-02-05T08:46:02;26.88;;;13.27;;
55539;SDS011;41384;51.418;7.286;2023-02-05T08:48:27;18.75;;;10.60;;
55539;SDS011;41384;51.418;7.286;2023-02-05T08:50:53;20.15;;;11.50;;
55539;SDS011;41384;51.418;7.286;2023-02-05T08:53:18;13.90;;;8.57;;
55539;SDS011;41384;51.418;7.286;2023-02-05T08:55:43;14.98;;;6.82;;
55539;SDS011;41384;51.418;7.286;2023-02-05T08:58:10;10.20;;;6.72;;
55539;SDS011;41384;51.418;7.286;2023-02-05T09:00:35;14.38;;;6.78;;
55539;SDS011;41384;51.418;7.286;2023-02-05T09:03:02;10.32;;;5.55;;
55539;SDS011;41384;51.418;7.286;2023-02-05T09:05:28;9.68;;;4.70;;
55539;SDS011;41384;51.418;7.286;2023-02-05T09:07:53;5.55;;;3.65;;
55539;SDS011;41384;51.418;7.286;2023-02-05T09:10:19;4.57;;;3.30;;
55539;SDS011;41384;51.418;7.286;2023-02-05T09:12:45;5.28;;;3.53;;
55539;SDS011;41384;51.418;7.286;2023-02-05T09:15:11;4.25;;;2.65;;
55539;SDS011;41384;51.418;7.286;2023-02-05T09:17:37;3.50;;;2.40;;
55539;SDS011;41384;51.418;7.286;2023-02-05T09:20:02;4.43;;;2.70;;
55539;SDS011;41384;51.418;7.286;2023-02-05T09:22:28;4.32;;;2.58;;
55539;SDS011;41384;51.418;7.286;2023-02-05T09:24:53;4.00;;;2.20;;
55539;SDS011;41384;51.418;7.286;2023-02-05T09:27:18;3.67;;;2.42;;
55539;SDS011;41384;51.418;7.286;2023-02-05T09:29:44;4.15;;;2.70;;
55539;SDS011;41384;51.418;7.286;2023-02-05T09:32:09;4.70;;;2.10;;
55539;SDS011;41384;51.418;7.286;2023-02-05T09:34:34;4.82;;;2.53;;
55539;SDS011;41384;51.418;7.286;2023-02-05T09:36:59;4.70;;;2.17;;
55539;SDS011;41384;51.418;7.286;2023-02-05T09:39:25;4.60;;;2.83;;
55539;SDS011;41384;51.418;7.286;2023-02-05T09:44:41;4.32;;;1.30;;
55539;SDS011;41384;51.418;7.286;2023-02-05T09:47:22;3.35;;;1.25;;
55539;SDS011;41384;51.418;7.286;2023-02-05T09:49:55;2.72;;;1.75;;
55539;SDS011;41384;51.418;7.286;2023-02-05T09:52:37;4.32;;;1.60;;
55539;SDS011;41384;51.418;7.286;2023-02-05T09:55:07;4.63;;;2.00;;
55539;SDS011;41384;51.418;7.286;2023-02-05T09:57:43;2.80;;;1.35;;
55539;SDS011;41384;51.418;7.286;2023-02-05T10:00:20;4.43;;;1.65;;
55539;SDS011;41384;51.418;7.286;2023-02-05T10:02:52;2.45;;;1.25;;
55539;SDS011;41384;51.418;7.286;2023-02-05T10:05:23;2.70;;;1.10;;
55539;SDS011;41384;51.418;7.286;2023-02-05T10:07:57;2.00;;;0.90;;
55539;SDS011;41384;51.418;7.286;2023-02-05T10:10:35;1.60;;;1.00;;
55539;SDS011;41384;51.418;7.286;2023-02-05T10:13:15;3.45;;;1.30;;
55539;SDS011;41384;51.418;7.286;2023-02-05T10:18:52;3.28;;;1.40;;
55539;SDS011;41384;51.418;7.286;2023-02-05T10:21:42;2.38;;;1.55;;
55539;SDS011;41384;51.418;7.286;2023-02-05T10:32:49;3.30;;;1.40;;
55539;SDS011;41384;51.418;7.286;2023-02-05T10:35:38;3.05;;;1.00;;
55539;SDS011;41384;51.418;7.286;2023-02-05T10:38:29;18.63;;;9.82;;
55539;SDS011;41384;51.418;7.286;2023-02-05T10:41:03;50.85;;;28.38;;
55539;SDS011;41384;51.418;7.286;2023-02-05T10:43:40;16.52;;;8.52;;
55539;SDS011;41384;51.418;7.286;2023-02-05T10:46:10;3.75;;;1.95;;
55539;SDS011;41384;51.418;7.286;2023-02-05T10:48:42;4.03;;;1.10;;
55539;SDS011;41384;51.418;7.286;2023-02-05T10:51:11;1.70;;;0.88;;
55539;SDS011;41384;51.418;7.286;2023-02-05T10:53:40;2.47;;;1.00;;
55539;SDS011;41384;51.418;7.286;2023-02-05T10:56:06;0.98;;;0.75;;
55539;SDS011;41384;51.418;7.286;2023-02-05T11:01:18;4.20;;;1.48;;
55539;SDS011;41384;51.418;7.286;2023-02-05T11:03:53;4.55;;;1.85;;
55539;SDS011;41384;51.418;7.286;2023-02-05T11:06:24;4.68;;;1.77;;
55539;SDS011;41384;51.418;7.286;2023-02-05T11:08:51;3.78;;;2.13;;
55539;SDS011;41384;51.418;7.286;2023-02-05T11:11:24;5.60;;;1.98;;
55539;SDS011;41384;51.418;7.286;2023-02-05T11:13:53;6.18;;;1.88;;
55539;SDS011;41384;51.418;7.286;2023-02-05T11:16:21;3.78;;;1.90;;
55539;SDS011;41384;51.418;7.286;2023-02-05T11:18:58;4.30;;;1.95;;
55539;SDS011;41384;51.418;7.286;2023-02-05T11:21:43;4.13;;;2.17;;
55539;SDS011;41384;51.418;7.286;2023-02-05T11:24:19;5.20;;;2.00;;
55539;SDS011;41384;51.418;7.286;2023-02-05T11:26:47;4.28;;;1.80;;
55539;SDS011;41384;51.418;7.286;2023-02-05T11:29:19;4.68;;;1.77;;
55539;SDS011;41384;51.418;7.286;2023-02-05T11:31:47;2.40;;;1.60;;
55539;SDS011;41384;51.418;7.286;2023-02-05T11:34:16;3.13;;;1.05;;
55539;SDS011;41384;51.418;7.286;2023-02-05T11:36:48;5.32;;;1.60;;
55539;SDS011;41384;51.418;7.286;2023-02-05T11:39:32;1.80;;;1.33;;
55539;SDS011;41384;51.418;7.286;2023-02-05T11:44:48;2.85;;;1.30;;
55539;SDS011;41384;51.418;7.286;2023-02-05T11:47:22;4.88;;;1.42;;
55539;SDS011;41384;51.418;7.286;2023-02-05T11:49:49;2.33;;;1.25;;
55539;SDS011;41384;51.418;7.286;2023-02-05T11:52:15;3.50;;;1.80;;
55539;SDS011;41384;51.418;7.286;2023-02-05T11:54:49;6.80;;;3.50;;
55539;SDS011;41384;51.418;7.286;2023-02-05T11:59:41;9.15;;;6.03;;
55539;SDS011;41384;51.418;7.286;2023-02-05T12:05:01;3.22;;;2.50;;
55539;SDS011;41384;51.418;7.286;2023-02-05T12:08:38;4.65;;;2.33;;
55539;SDS011;41384;51.418;7.286;2023-02-05T12:13:17;3.40;;;2.05;;
55539;SDS011;41384;51.418;7.286;2023-02-05T12:19:16;5.35;;;2.22;;
55539;SDS011;41384;51.418;7.286;2023-02-05T12:21:46;4.60;;;2.20;;
55539;SDS011;41384;51.418;7.286;2023-02-05T12:24:37;2.78;;;1.90;;
55539;SDS011;41384;51.418;7.286;2023-02-05T12:27:52;3.95;;;1.80;;
55539;SDS011;41384;51.418;7.286;2023-02-05T12:30:15;1.98;;;1.77;;
55539;SDS011;41384;51.418;7.286;2023-02-05T12:46:04;4.97;;;1.95;;
55539;SDS011;41384;51.418;7.286;2023-02-05T12:57:19;5.95;;;2.03;;
55539;SDS011;41384;51.418;7.286;2023-02-05T12:59:57;4.65;;;2.05;;
55539;SDS011;41384;51.418;7.286;2023-02-05T13:02:35;5.38;;;1.90;;
55539;SDS011;41384;51.418;7.286;2023-02-05T13:07:38;3.28;;;2.00;;
55539;SDS011;41384;51.418;7.286;2023-02-05T13:10:22;6.60;;;2.00;;
55539;SDS011;41384;51.418;7.286;2023-02-05T13:12:52;4.30;;;2.03;;
55539;SDS011;41384;51.418;7.286;2023-02-05T13:15:24;3.30;;;2.03;;
55539;SDS011;41384;51.418;7.286;2023-02-05T13:17:58;4.30;;;2.03;;
55539;SDS011;41384;51.418;7.286;2023-02-05T13:20:37;3.78;;;1.80;;
55539;SDS011;41384;51.418;7.286;2023-02-05T13:23:24;4.20;;;2.10;;
55539;SDS011;41384;51.418;7.286;2023-02-05T13:26:10;7.32;;;3.30;;
55539;SDS011;41384;51.418;7.286;2023-02-05T13:28:52;2.35;;;2.03;;
55539;SDS011;41384;51.418;7.286;2023-02-05T13:34:08;2.72;;;1.92;;
55539;SDS011;41384;51.418;7.286;2023-02-05T13:51:07;3.42;;;2.70;;
55539;SDS011;41384;51.418;7.286;2023-02-05T13:57:28;5.13;;;3.10;;
55539;SDS011;41384;51.418;7.286;2023-02-05T13:59:36;9.93;;;3.53;;
55539;SDS011;41384;51.418;7.286;2023-02-05T14:02:17;6.35;;;2.88;;
55539;SDS011;41384;51.418;7.286;2023-02-05T14:04:57;14.40;;;5.90;;
55539;SDS011;41384;51.418;7.286;2023-02-05T14:07:31;5.60;;;3.50;;
55539;SDS011;41384;51.418;7.286;2023-02-05T14:10:19;7.07;;;3.30;;
55539;SDS011;41384;51.418;7.286;2023-02-05T14:12:50;9.80;;;3.03;;
55539;SDS011;41384;51.418;7.286;2023-02-05T14:28:46;5.72;;;2.60;;
55539;SDS011;41384;51.418;7.286;2023-02-05T14:30:54;10.32;;;3.20;;
55539;SDS011;41384;51.418;7.286;2023-02-05T14:33:41;11.20;;;2.80;;
55539;SDS011;41384;51.418;7.286;2023-02-05T14:36:25;7.60;;;3.08;;
55539;SDS011;41384;51.418;7.286;2023-02-05T14:39:05;7.30;;;2.47;;
55539;SDS011;41384;51.418;7.286;2023-02-05T14:41:48;10.73;;;2.63;;
55539;SDS011;41384;51.418;7.286;2023-02-05T14:51:56;7.95;;;2.58;;
55539;SDS011;41384;51.418;7.286;2023-02-05T14:54:32;7.30;;;2.25;;
55539;SDS011;41384;51.418;7.286;2023-02-05T14:59:47;7.30;;;2.38;;
55539;SDS011;41384;51.418;7.286;2023-02-05T15:10:36;5.20;;;2.08;;
55539;SDS011;41384;51.418;7.286;2023-02-05T15:13:10;12.77;;;2.65;;
55539;SDS011;41384;51.418;7.286;2023-02-05T15:15:38;10.35;;;2.63;;
55539;SDS011;41384;51.418;7.286;2023-02-05T15:18:20;7.50;;;2.08;;
55539;SDS011;41384;51.418;7.286;2023-02-05T15:20:56;10.85;;;2.38;;
55539;SDS011;41384;51.418;7.286;2023-02-05T15:23:26;9.10;;;2.30;;
55539;SDS011;41384;51.418;7.286;2023-02-05T15:26:06;6.38;;;1.80;;
55539;SDS011;41384;51.418;7.286;2023-02-05T15:28:48;4.90;;;2.00;;
55539;SDS011;41384;51.418;7.286;2023-02-05T15:31:25;8.13;;;2.13;;
55539;SDS011;41384;51.418;7.286;2023-02-05T15:34:05;5.53;;;1.80;;
55539;SDS011;41384;51.418;7.286;2023-02-05T15:37:03;9.02;;;2.28;;
55539;SDS011;41384;51.418;7.286;2023-02-05T15:42:14;8.35;;;2.20;;
55539;SDS011;41384;51.418;7.286;2023-02-05T15:44:42;12.70;;;1.95;;
55539;SDS011;41384;51.418;7.286;2023-02-05T15:47:09;6.45;;;2.05;;
55539;SDS011;41384;51.418;7.286;2023-02-05T15:50:14;9.88;;;2.92;;
55539;SDS011;41384;51.418;7.286;2023-02-05T15:52:36;9.90;;;2.55;;
55539;SDS011;41384;51.418;7.286;2023-02-05T15:55:07;12.65;;;3.55;;
55539;SDS011;41384;51.418;7.286;2023-02-05T15:57:37;13.15;;;2.10;;
55539;SDS011;41384;51.418;7.286;2023-02-05T16:00:05;7.35;;;1.88;;
55539;SDS011;41384;51.418;7.286;2023-02-05T16:02:32;6.75;;;1.88;;
55539;SDS011;41384;51.418;7.286;2023-02-05T16:04:59;8.98;;;2.10;;
55539;SDS011;41384;51.418;7.286;2023-02-05T16:07:28;11.70;;;3.00;;
55539;SDS011;41384;51.418;7.286;2023-02-05T16:09:59;11.23;;;1.98;;
55539;SDS011;41384;51.418;7.286;2023-02-05T16:12:55;7.95;;;2.20;;
55539;SDS011;41384;51.418;7.286;2023-02-05T16:15:30;11.10;;;2.50;;
55539;SDS011;41384;51.418;7.286;2023-02-05T16:18:01;6.30;;;1.98;;
55539;SDS011;41384;51.418;7.286;2023-02-05T16:20:34;7.47;;;2.30;;
55539;SDS011;41384;51.418;7.286;2023-02-05T16:23:09;8.02;;;2.63;;
55539;SDS011;41384;51.418;7.286;2023-02-05T16:25:43;11.75;;;2.30;;
55539;SDS011;41384;51.418;7.286;2023-02-05T16:28:22;11.30;;;2.35;;
55539;SDS011;41384;51.418;7.286;2023-02-05T16:31:01;5.93;;;2.03;;
55539;SDS011;41384;51.418;7.286;2023-02-05T16:33:35;10.20;;;2.15;;
55539;SDS011;41384;51.418;7.286;2023-02-05T16:36:05;9.25;;;2.45;;
55539;SDS011;41384;51.418;7.286;2023-02-05T16:38:39;8.55;;;2.38;;
55539;SDS011;41384;51.418;7.286;2023-02-05T16:41:16;13.05;;;2.60;;
55539;SDS011;41384;51.418;7.286;2023-02-05T16:43:42;10.15;;;2.60;;
55539;SDS011;41384;51.418;7.286;2023-02-05T16:51:25;12.05;;;2.88;;
55539;SDS011;41384;51.418;7.286;2023-02-05T16:53:50;14.10;;;3.25;;
55539;SDS011;41384;51.418;7.286;2023-02-05T16:56:17;11.90;;;2.92;;
55539;SDS011;41384;51.418;7.286;2023-02-05T16:58:48;13.45;;;3.00;;
55539;SDS011;41384;51.418;7.286;2023-02-05T17:01:21;16.45;;;2.83;;
55539;SDS011;41384;51.418;7.286;2023-02-05T17:03:48;14.90;;;2.70;;
55539;SDS011;41384;51.418;7.286;2023-02-05T17:06:15;19.10;;;3.13;;
55539;SDS011;41384;51.418;7.286;2023-02-05T17:08:42;14.32;;;2.58;;
55539;SDS011;41384;51.418;7.286;2023-02-05T17:11:36;10.90;;;3.00;;